Time;durP1;ratioP1;P1;durP2;ratioP2;P2;SDS_P1;SDS_P2;PMS_P1;PMS_P2;Temp;Humidity;BMP_temperature;BMP_pressure;BME280_temperature;BME280_humidity;BME280_pressure;Samples;Min_cycle;Max_cycle;Signal;HPM_P1;HPM_P2
2023/06/22 00:00:41;;;;;;;8.50;3.80;;;;;;;19.69;75.67;101806.47;4998979;28;20023;-48
2023/06/22 00:03:07;;;;;;;5.60;3.70;;;;;;;19.65;75.86;101800.53;5002011;28;20037;-49
2023/06/22 00:05:32;;;;;;;4.30;3.70;;;;;;;19.61;75.78;101791.06;4997873;28;20030;-48
2023/06/22 00:08:02;;;;;;;8.95;4.38;;;;;;;19.54;75.85;101787.28;5000784;28;20030;-48
2023/06/22 00:10:27;;;;;;;5.78;3.80;;;;;;;19.51;75.89;101787.59;4998429;28;20081;-48
2023/06/22 00:12:52;;;;;;;4.93;4.03;;;;;;;19.44;75.71;101800.00;5002097;28;20077;-49
2023/06/22 00:15:17;;;;;;;7.53;4.60;;;;;;;19.44;74.45;101806.22;4993308;28;20301;-48
2023/06/22 00:17:43;;;;;;;7.87;4.50;;;;;;;19.38;74.67;101790.66;5002007;28;20316;-49
2023/06/22 00:20:10;;;;;;;7.88;4.70;;;;;;;19.33;75.76;101785.72;4999390;28;20300;-49
2023/06/22 00:22:38;;;;;;;7.22;4.63;;;;;;;19.29;75.50;101791.59;5002039;28;20037;-48
2023/06/22 00:25:07;;;;;;;7.60;4.90;;;;;;;19.25;75.07;101796.41;4997093;28;20109;-48
2023/06/22 00:27:32;;;;;;;7.18;4.65;;;;;;;19.20;75.08;101796.00;5002813;28;20038;-49
2023/06/22 00:29:57;;;;;;;6.15;5.22;;;;;;;19.12;75.72;101793.22;5003836;28;20038;-47
2023/06/22 00:32:23;;;;;;;6.95;4.80;;;;;;;19.12;75.89;101794.09;4994508;28;20050;-47
2023/06/22 00:34:48;;;;;;;7.22;4.68;;;;;;;19.08;75.98;101792.69;5003149;28;20042;-47
2023/06/22 00:37:13;;;;;;;5.18;4.78;;;;;;;19.04;75.95;101791.28;5001678;28;20141;-49
2023/06/22 00:39:39;;;;;;;9.70;4.83;;;;;;;19.03;75.91;101786.91;4997913;28;20109;-50
2023/06/22 00:42:04;;;;;;;7.50;4.82;;;;;;;19.00;76.42;101784.50;4999658;28;20299;-47
2023/06/22 00:44:29;;;;;;;6.25;4.30;;;;;;;18.90;77.57;101778.31;4998426;28;20076;-48
2023/06/22 00:46:55;;;;;;;6.78;4.43;;;;;;;18.84;78.24;101779.78;4997876;28;20083;-48
2023/06/22 00:49:21;;;;;;;5.97;4.80;;;;;;;18.83;77.87;101778.91;5001088;28;20422;-49
2023/06/22 00:51:47;;;;;;;6.50;4.68;;;;;;;18.74;78.01;101777.09;5003944;28;20043;-47
2023/06/22 00:54:13;;;;;;;7.65;4.78;;;;;;;18.70;77.22;101781.06;4998605;28;20038;-49
2023/06/22 00:56:40;;;;;;;4.80;4.35;;;;;;;18.72;77.79;101786.31;4980825;28;20422;-48
2023/06/22 00:59:06;;;;;;;6.78;5.20;;;;;;;18.66;78.49;101777.00;4998022;28;20034;-50
2023/06/22 01:01:31;;;;;;;8.35;4.70;;;;;;;18.65;78.51;101777.97;5001098;28;20033;-49
2023/06/22 01:03:58;;;;;;;6.35;4.88;;;;;;;18.63;78.33;101774.59;5000910;28;20030;-48
2023/06/22 01:06:38;;;;;;;4.90;4.43;;;;;;;18.57;78.98;101773.34;5002916;28;20065;-48
2023/06/22 01:09:15;;;;;;;7.20;4.32;;;;;;;18.55;79.37;101771.78;5002130;28;20018;-47
2023/06/22 01:11:48;;;;;;;5.60;4.72;;;;;;;18.50;79.77;101777.59;5000054;28;20514;-48
2023/06/22 01:14:22;;;;;;;6.13;4.80;;;;;;;18.51;79.59;101782.00;5000833;28;20054;-47
2023/06/22 01:16:49;;;;;;;8.20;4.82;;;;;;;18.48;79.87;101769.72;4996893;28;20041;-48
2023/06/22 01:19:47;;;;;;;5.32;4.50;;;;;;;18.51;77.89;101776.63;5001263;28;20097;-49
2023/06/22 01:22:16;;;;;;;7.18;5.47;;;;;;;18.44;80.23;101775.53;5000593;28;20041;-48
2023/06/22 01:24:57;;;;;;;7.63;5.65;;;;;;;18.45;79.94;101785.25;5000596;28;20480;-48
2023/06/22 01:27:54;;;;;;;6.07;5.47;;;;;;;18.46;78.27;101787.81;4997548;28;20085;-47
2023/06/22 01:30:20;;;;;;;8.20;5.88;;;;;;;18.45;80.18;101787.97;4999675;28;20053;-48
2023/06/22 01:32:47;;;;;;;7.05;6.30;;;;;;;18.44;80.88;101778.22;4999560;28;20062;-50
2023/06/22 01:35:14;;;;;;;7.93;6.18;;;;;;;18.45;80.72;101779.88;5000667;28;20049;-48
2023/06/22 01:37:39;;;;;;;8.77;7.22;;;;;;;18.44;79.84;101773.66;5000597;28;20037;-47
2023/06/22 01:40:08;;;;;;;9.07;6.95;;;;;;;18.45;80.97;101774.50;5001815;28;20398;-48
2023/06/22 01:42:34;;;;;;;8.60;7.53;;;;;;;18.46;80.90;101773.53;4996438;28;20026;-47
2023/06/22 01:45:01;;;;;;;8.80;7.15;;;;;;;18.41;81.55;101778.50;4994380;28;20026;-48
2023/06/22 01:47:27;;;;;;;7.50;6.50;;;;;;;18.37;81.31;101767.19;5000003;28;20026;-48
2023/06/22 01:49:53;;;;;;;9.45;6.90;;;;;;;18.36;81.01;101778.09;4993200;28;20030;-48
2023/06/22 01:52:20;;;;;;;10.40;7.13;;;;;;;18.30;81.75;101766.06;4996988;28;20097;-48
2023/06/22 01:54:46;;;;;;;8.55;7.50;;;;;;;18.33;81.38;101771.16;4998913;28;20548;-48
2023/06/22 01:57:11;;;;;;;11.38;7.18;;;;;;;18.29;82.23;101775.97;4999430;28;20122;-48
2023/06/22 02:00:04;;;;;;;8.88;6.80;;;;;;;18.33;81.59;101778.38;4993925;28;20125;-48
2023/06/22 02:02:36;;;;;;;8.85;7.68;;;;;;;18.33;81.69;101764.94;4998781;28;20033;-48
2023/06/22 02:05:06;;;;;;;8.43;7.55;;;;;;;18.25;82.07;101771.91;4999932;28;20399;-49
2023/06/22 02:07:38;;;;;;;10.73;7.07;;;;;;;18.25;82.42;101762.97;4999213;28;20039;-48
2023/06/22 02:10:07;;;;;;;9.15;6.97;;;;;;;18.29;82.98;101762.53;4998953;28;20061;-47
2023/06/22 02:12:35;;;;;;;11.02;7.57;;;;;;;18.26;83.53;101770.88;4996430;28;20110;-48
2023/06/22 02:15:01;;;;;;;10.30;7.22;;;;;;;18.30;82.50;101766.94;4995778;28;20037;-47
2023/06/22 02:17:27;;;;;;;9.45;7.80;;;;;;;18.27;82.71;101766.38;4995478;28;20058;-49
2023/06/22 02:19:52;;;;;;;10.57;7.82;;;;;;;18.23;83.15;101771.16;4999714;28;20033;-48
2023/06/22 02:22:18;;;;;;;10.73;7.85;;;;;;;18.25;83.24;101771.91;4997544;28;20034;-48
2023/06/22 02:24:43;;;;;;;8.60;7.70;;;;;;;18.22;83.48;101760.56;4998277;28;20033;-47
2023/06/22 02:27:08;;;;;;;10.35;8.35;;;;;;;18.19;83.90;101763.56;4997571;28;20041;-48
2023/06/22 02:29:34;;;;;;;10.52;7.68;;;;;;;18.19;83.23;101760.88;4999194;28;20041;-48
2023/06/22 02:31:59;;;;;;;9.85;7.78;;;;;;;18.18;83.44;101757.31;4996015;28;20070;-48
2023/06/22 02:34:25;;;;;;;12.43;8.85;;;;;;;18.19;84.00;101753.66;4999757;28;20026;-48
2023/06/22 02:36:51;;;;;;;11.02;9.35;;;;;;;18.18;83.98;101743.88;4996500;28;20030;-48
2023/06/22 02:39:18;;;;;;;11.52;8.93;;;;;;;18.14;84.47;101749.72;4997411;28;20015;-48
2023/06/22 02:41:43;;;;;;;11.85;9.20;;;;;;;18.11;84.29;101748.16;5001955;28;20526;-49
2023/06/22 02:44:09;;;;;;;9.95;8.45;;;;;;;18.15;84.00;101746.84;4999956;28;20109;-47
2023/06/22 02:46:35;;;;;;;11.50;7.85;;;;;;;18.12;84.60;101744.47;4998165;28;20056;-48
2023/06/22 02:49:01;;;;;;;11.75;9.13;;;;;;;18.12;84.84;101749.84;5002149;28;20097;-48
2023/06/22 02:51:26;;;;;;;13.80;8.48;;;;;;;18.07;84.68;101742.22;4997095;28;20034;-48
2023/06/22 02:53:52;;;;;;;11.38;8.90;;;;;;;18.02;85.31;101741.81;4990003;28;20037;-48
2023/06/22 02:56:17;;;;;;;11.43;9.25;;;;;;;17.98;85.33;101739.53;5003158;28;20030;-49
2023/06/22 02:58:42;;;;;;;10.68;9.57;;;;;;;17.95;85.63;101743.34;4999370;28;20030;-49
2023/06/22 03:01:09;;;;;;;12.70;9.73;;;;;;;17.94;84.23;101734.44;5002295;28;20038;-46
2023/06/22 03:03:35;;;;;;;10.85;9.73;;;;;;;17.88;86.05;101731.50;5001095;28;20065;-46
2023/06/22 03:06:03;;;;;;;10.68;9.55;;;;;;;17.90;85.62;101726.81;5002127;28;20077;-47
2023/06/22 03:08:29;;;;;;;15.25;10.07;;;;;;;17.83;86.42;101720.28;4998832;28;20486;-48
2023/06/22 03:10:54;;;;;;;11.18;10.02;;;;;;;17.79;86.29;101721.59;5005095;28;20037;-49
2023/06/22 03:13:19;;;;;;;12.38;10.10;;;;;;;17.78;87.12;101719.88;5001765;28;20037;-48
2023/06/22 03:15:45;;;;;;;13.50;10.18;;;;;;;17.73;87.47;101721.13;5003994;28;20032;-50
2023/06/22 03:18:11;;;;;;;11.05;9.30;;;;;;;17.71;87.71;101711.53;5000186;28;20110;-48
2023/06/22 03:20:36;;;;;;;10.25;8.85;;;;;;;17.74;87.01;101712.09;5001469;28;20034;-48
2023/06/22 03:23:01;;;;;;;11.38;9.80;;;;;;;17.71;87.76;101708.84;5004304;28;20022;-48
2023/06/22 03:25:27;;;;;;;13.50;10.25;;;;;;;17.71;87.82;101704.31;5001785;28;20539;-48
2023/06/22 03:27:52;;;;;;;13.88;10.43;;;;;;;17.71;87.77;101703.47;5002471;28;20578;-47
2023/06/22 03:30:17;;;;;;;12.10;10.27;;;;;;;17.63;88.11;101697.97;5000124;28;20026;-48
2023/06/22 03:32:43;;;;;;;12.80;10.05;;;;;;;17.61;87.90;101708.03;5002356;28;20025;-49
2023/06/22 03:35:09;;;;;;;13.98;11.07;;;;;;;17.64;88.61;101702.38;4998831;28;20097;-49
2023/06/22 03:37:34;;;;;;;11.63;10.07;;;;;;;17.64;88.45;101713.94;5002938;28;20037;-48
2023/06/22 03:40:00;;;;;;;18.60;10.57;;;;;;;17.60;89.01;101704.47;4987157;28;20129;-46
2023/06/22 03:42:25;;;;;;;15.40;11.43;;;;;;;17.57;89.56;101700.25;5002480;28;20026;-50
2023/06/22 03:44:51;;;;;;;13.10;10.98;;;;;;;17.58;89.55;101703.78;5003327;28;20704;-47
2023/06/22 03:47:17;;;;;;;14.50;11.60;;;;;;;17.57;89.56;101699.41;5001043;28;20057;-48
2023/06/22 03:49:42;;;;;;;13.98;11.70;;;;;;;17.62;89.11;101698.94;5000358;28;20530;-48
2023/06/22 03:52:07;;;;;;;12.70;10.88;;;;;;;17.61;89.33;101689.22;4997140;28;20050;-48
2023/06/22 03:54:33;;;;;;;16.90;11.85;;;;;;;17.56;89.61;101692.31;5002168;28;20025;-47
2023/06/22 03:56:58;;;;;;;13.93;11.13;;;;;;;17.59;89.08;101691.22;4999818;28;20034;-50
2023/06/22 03:59:24;;;;;;;15.15;11.18;;;;;;;17.55;90.00;101694.19;5005559;28;20033;-47
2023/06/22 04:01:50;;;;;;;12.45;11.15;;;;;;;17.61;89.39;101681.16;4998380;28;20030;-48
2023/06/22 04:04:16;;;;;;;14.73;11.63;;;;;;;17.58;89.91;101687.66;5000403;28;20081;-49
2023/06/22 04:06:41;;;;;;;17.65;12.32;;;;;;;17.57;90.31;101692.19;4998262;28;20113;-48
2023/06/22 04:09:06;;;;;;;17.83;12.48;;;;;;;17.56;90.46;101687.78;4999716;28;20446;-49
2023/06/22 04:11:32;;;;;;;13.65;12.00;;;;;;;17.61;89.85;101690.06;5001644;28;20026;-47
2023/06/22 04:13:57;;;;;;;14.68;11.90;;;;;;;17.60;90.26;101692.88;4999755;28;20367;-47
2023/06/22 04:16:22;;;;;;;14.80;12.15;;;;;;;17.61;90.11;101689.22;4997521;28;20034;-47
2023/06/22 04:18:48;;;;;;;20.27;12.57;;;;;;;17.64;90.05;101699.69;4999717;28;20105;-47
2023/06/22 04:21:13;;;;;;;16.70;13.00;;;;;;;17.67;89.83;101686.81;4998443;28;20037;-48
2023/06/22 04:23:39;;;;;;;13.02;11.43;;;;;;;17.69;90.01;101692.88;4999649;28;20047;-47
2023/06/22 04:26:04;;;;;;;14.18;12.60;;;;;;;17.70;90.52;101697.28;5001390;28;20471;-49
2023/06/22 04:28:34;;;;;;;16.92;12.07;;;;;;;17.72;90.14;101695.28;4997350;28;20162;-48
2023/06/22 04:31:02;;;;;;;14.10;12.27;;;;;;;17.77;89.95;101705.59;5009922;28;20048;-47
2023/06/22 04:33:29;;;;;;;16.33;12.75;;;;;;;17.76;90.91;101704.72;5006960;28;20057;-47
2023/06/22 04:35:56;;;;;;;18.13;12.93;;;;;;;17.85;90.21;101703.06;5000892;28;20029;-48
2023/06/22 04:38:22;;;;;;;15.30;12.90;;;;;;;17.88;90.35;101697.38;5002695;28;20071;-49
2023/06/22 04:40:48;;;;;;;16.08;12.45;;;;;;;17.94;89.94;101698.66;5001349;28;20034;-47
2023/06/22 04:43:13;;;;;;;13.35;11.95;;;;;;;18.01;89.58;101701.63;5001217;28;20034;-48
2023/06/22 04:45:38;;;;;;;14.43;12.38;;;;;;;18.04;90.44;101706.72;5000410;28;20026;-48
2023/06/22 04:48:05;;;;;;;16.73;13.00;;;;;;;18.08;90.69;101710.78;4997299;28;20032;-48
2023/06/22 04:50:30;;;;;;;16.75;12.85;;;;;;;18.16;90.00;101700.16;5005147;28;20383;-47
2023/06/22 04:52:56;;;;;;;17.30;13.00;;;;;;;18.21;89.68;101703.25;4997420;28;20030;-47
2023/06/22 04:55:21;;;;;;;16.88;13.18;;;;;;;18.26;89.81;101692.91;5001082;28;20033;-47
2023/06/22 04:57:50;;;;;;;18.17;13.25;;;;;;;18.30;89.23;101698.81;5003250;28;20025;-48
2023/06/22 05:00:17;;;;;;;;;;;;;;;18.40;86.91;101706.84;5001381;28;20578;-48
2023/06/22 05:02:47;;;;;;;14.45;12.73;;;;;;;18.35;88.69;101699.22;4997681;28;19917;-47
2023/06/22 05:05:13;;;;;;;20.20;13.32;;;;;;;18.42;88.53;101707.59;5003410;28;20407;-47
2023/06/22 05:07:42;;;;;;;16.70;13.02;;;;;;;18.43;88.52;101698.50;4993816;28;20022;-48
2023/06/22 05:10:08;;;;;;;;;;;;;;;18.54;86.36;101697.47;4999265;28;20022;-47
2023/06/22 05:12:33;;;;;;;15.82;13.68;;;;;;;18.54;89.04;101697.47;4998029;28;19917;-48
2023/06/22 05:14:59;;;;;;;16.85;13.32;;;;;;;18.59;87.61;101697.88;4998921;28;20026;-48
2023/06/22 05:17:25;;;;;;;15.20;13.60;;;;;;;18.64;89.05;101699.09;4997608;28;20033;-49
2023/06/22 05:19:50;;;;;;;14.60;13.13;;;;;;;18.75;87.72;101702.59;4999721;28;20463;-48
2023/06/22 05:22:16;;;;;;;17.20;13.98;;;;;;;18.83;88.59;101700.84;4996662;28;20037;-48
2023/06/22 05:24:42;;;;;;;15.52;13.93;;;;;;;18.91;87.63;101697.41;5000783;28;20072;-49
2023/06/22 05:27:08;;;;;;;15.35;13.65;;;;;;;18.99;87.19;101692.13;4997265;28;20471;-49
2023/06/22 05:29:33;;;;;;;16.38;14.68;;;;;;;19.10;86.91;101695.59;5000469;28;20116;-49
2023/06/22 05:31:58;;;;;;;18.45;14.52;;;;;;;19.19;86.73;101689.31;4981822;28;20025;-48
2023/06/22 05:34:24;;;;;;;16.38;14.38;;;;;;;19.30;86.45;101685.50;4998317;28;20081;-49
2023/06/22 05:36:49;;;;;;;17.17;15.27;;;;;;;19.37;86.22;101687.44;4996705;28;20073;-47
2023/06/22 05:39:15;;;;;;;17.77;15.88;;;;;;;19.42;85.73;101687.00;4991293;28;20033;-48
2023/06/22 05:41:41;;;;;;;17.90;15.23;;;;;;;19.48;85.25;101686.34;4999541;28;20053;-48
2023/06/22 05:44:06;;;;;;;17.55;14.98;;;;;;;19.54;85.05;101685.72;4999124;28;20022;-48
2023/06/22 05:46:31;;;;;;;19.40;16.63;;;;;;;19.60;84.74;101684.25;5000311;28;20102;-47
2023/06/22 05:48:57;;;;;;;17.83;15.90;;;;;;;19.65;85.14;101691.88;4998339;28;20026;-50
2023/06/22 05:51:22;;;;;;;18.08;15.95;;;;;;;19.67;84.87;101695.25;4998465;28;20037;-48
2023/06/22 05:53:49;;;;;;;18.75;15.27;;;;;;;19.73;84.70;101695.50;5002332;28;20033;-49
2023/06/22 05:56:15;;;;;;;18.00;15.02;;;;;;;19.78;84.83;101698.59;4999840;28;20455;-48
2023/06/22 05:58:41;;;;;;;19.75;16.25;;;;;;;19.82;84.13;101691.03;4994044;28;20134;-48
2023/06/22 06:01:06;;;;;;;22.73;16.20;;;;;;;19.86;85.54;101688.88;4991485;28;20026;-48
2023/06/22 06:03:31;;;;;;;18.73;16.05;;;;;;;19.90;85.18;101692.94;4991189;28;20024;-48
2023/06/22 06:05:57;;;;;;;19.10;16.60;;;;;;;19.96;85.43;101692.31;4994834;28;20385;-48
2023/06/22 06:08:22;;;;;;;20.83;16.27;;;;;;;20.01;85.31;101684.59;4995047;28;20038;-49
2023/06/22 06:10:48;;;;;;;20.25;17.17;;;;;;;20.07;84.81;101686.66;4983398;28;20056;-48
2023/06/22 06:13:13;;;;;;;19.23;17.23;;;;;;;20.10;84.69;101682.78;4999537;28;20045;-49
2023/06/22 06:15:38;;;;;;;20.85;16.65;;;;;;;20.14;85.13;101681.47;4997717;28;20050;-48
2023/06/22 06:18:05;;;;;;;21.33;16.75;;;;;;;20.19;84.84;101675.59;5001113;28;20030;-49
2023/06/22 06:20:31;;;;;;;23.60;16.92;;;;;;;20.21;84.81;101674.41;5002296;28;20107;-48
2023/06/22 06:22:57;;;;;;;22.52;17.02;;;;;;;20.27;85.02;101689.13;4996165;28;20049;-49
2023/06/22 06:25:23;;;;;;;19.73;16.55;;;;;;;20.32;85.05;101681.38;4997077;28;20042;-49
2023/06/22 06:27:51;;;;;;;18.77;15.80;;;;;;;20.40;83.31;101685.97;4992740;28;20072;-48
2023/06/22 06:30:17;;;;;;;20.00;16.35;;;;;;;20.40;83.79;101689.53;5006322;28;20045;-49
2023/06/22 06:32:45;;;;;;;18.55;15.45;;;;;;;20.46;83.50;101678.06;5005305;28;20045;-50
2023/06/22 06:35:11;;;;;;;18.98;16.50;;;;;;;20.50;83.27;101678.56;4998977;28;20390;-49
2023/06/22 06:37:39;;;;;;;19.42;15.63;;;;;;;20.57;84.07;101692.25;5000659;28;20022;-49
2023/06/22 06:40:10;;;;;;;18.60;16.08;;;;;;;20.65;83.42;101684.22;5002221;28;20037;-49
2023/06/22 06:42:37;;;;;;;18.52;15.75;;;;;;;20.73;82.96;101680.72;5002479;28;20110;-49
2023/06/22 06:45:04;;;;;;;18.98;16.25;;;;;;;20.71;82.13;101678.19;5001783;28;20033;-51
2023/06/22 06:47:29;;;;;;;18.52;15.70;;;;;;;20.76;82.21;101680.41;5000949;28;20038;-49
2023/06/22 06:49:55;;;;;;;18.23;15.95;;;;;;;20.81;81.62;101687.00;4996938;28;20034;-50
2023/06/22 06:52:20;;;;;;;22.40;16.67;;;;;;;20.84;81.00;101686.66;4977537;28;20475;-49
2023/06/22 06:54:45;;;;;;;18.25;15.90;;;;;;;20.87;80.94;101686.34;5002160;28;20037;-48
2023/06/22 06:57:13;;;;;;;19.95;16.65;;;;;;;20.94;81.53;101691.91;5003496;28;20085;-48
2023/06/22 06:59:38;;;;;;;20.73;15.98;;;;;;;20.96;80.38;101687.19;5001173;28;20053;-48
2023/06/22 07:02:04;;;;;;;19.92;15.93;;;;;;;20.98;79.88;101687.03;5003013;28;20046;-48
2023/06/22 07:04:30;;;;;;;17.88;15.57;;;;;;;21.03;80.35;101687.38;5001628;28;20034;-47
2023/06/22 07:06:55;;;;;;;19.55;16.33;;;;;;;21.04;79.37;101683.69;4995586;28;20026;-47
2023/06/22 07:09:20;;;;;;;20.70;16.25;;;;;;;21.05;79.96;101688.09;5000110;28;20119;-48
2023/06/22 07:11:45;;;;;;;19.13;15.75;;;;;;;21.06;79.99;101682.47;4998578;28;20391;-48
2023/06/22 07:14:11;;;;;;;18.15;16.33;;;;;;;21.08;81.38;101682.31;4992854;28;20598;-48
2023/06/22 07:16:36;;;;;;;17.92;16.13;;;;;;;21.06;80.55;101681.66;5000661;28;20499;-48
2023/06/22 07:19:01;;;;;;;19.15;16.40;;;;;;;21.10;80.05;101682.16;5006513;28;20018;-48
2023/06/22 07:21:27;;;;;;;18.25;14.80;;;;;;;21.12;80.29;101677.44;4996260;28;20062;-48
2023/06/22 07:23:52;;;;;;;18.58;16.17;;;;;;;21.15;80.06;101680.66;4996683;28;20062;-48
2023/06/22 07:26:17;;;;;;;20.25;16.98;;;;;;;21.14;79.02;101681.66;5002604;28;20030;-48
2023/06/22 07:28:43;;;;;;;19.75;16.35;;;;;;;21.18;79.27;101684.88;4989510;28;20424;-48
2023/06/22 07:31:08;;;;;;;18.42;15.55;;;;;;;21.21;80.70;101671.88;4997127;28;20030;-48
2023/06/22 07:33:33;;;;;;;18.80;16.63;;;;;;;21.22;79.72;101681.69;5001181;28;20042;-48
2023/06/22 07:35:59;;;;;;;19.00;17.08;;;;;;;21.25;79.45;101675.09;4998746;28;20116;-48
2023/06/22 07:38:24;;;;;;;18.60;16.73;;;;;;;21.21;78.83;101669.16;5002671;28;20030;-48
2023/06/22 07:40:50;;;;;;;22.60;17.60;;;;;;;21.23;81.71;101660.91;4998064;28;20027;-48
2023/06/22 07:43:16;;;;;;;19.42;17.45;;;;;;;21.21;79.73;101657.53;4995240;28;20058;-48
2023/06/22 07:45:51;;;;;;;21.85;18.52;;;;;;;21.25;82.74;101651.63;4994447;28;20061;-49
2023/06/22 07:48:17;;;;;;;22.75;18.08;;;;;;;21.24;84.17;101643.69;5000040;28;20109;-49
2023/06/22 07:50:42;;;;;;;22.35;17.77;;;;;;;21.25;84.92;101629.16;4999707;28;20121;-49
2023/06/22 07:53:08;;;;;;;21.02;18.70;;;;;;;21.29;86.05;101629.69;4999341;28;20057;-48
2023/06/22 07:55:33;;;;;;;23.23;18.42;;;;;;;21.28;87.01;101615.31;4998370;28;20727;-48
2023/06/22 07:57:58;;;;;;;21.27;18.85;;;;;;;21.28;88.85;101615.31;5000862;28;20030;-49
2023/06/22 08:00:24;;;;;;;22.90;20.33;;;;;;;21.32;88.67;101603.16;4996863;28;20088;-48
2023/06/22 08:02:49;;;;;;;23.15;20.67;;;;;;;21.38;91.45;101602.47;4999348;28;20022;-49
2023/06/22 08:05:15;;;;;;;29.00;19.98;;;;;;;21.43;90.58;101596.53;4999175;28;20069;-48
2023/06/22 08:07:41;;;;;;;22.95;20.52;;;;;;;21.44;90.68;101585.56;5004408;28;20060;-48
2023/06/22 08:10:09;;;;;;;24.23;20.60;;;;;;;21.46;90.68;101588.09;5000147;28;20033;-48
2023/06/22 08:12:35;;;;;;;;;;;;;;;21.61;86.91;101578.28;5001561;28;20109;-47
2023/06/22 08:15:00;;;;;;;22.97;20.47;;;;;;;21.56;90.86;101586.06;4967955;28;19920;-48
2023/06/22 08:17:26;;;;;;;24.30;19.15;;;;;;;21.57;90.87;101585.06;4995269;28;20030;-48
2023/06/22 08:19:51;;;;;;;20.88;18.67;;;;;;;21.62;91.25;101577.28;5000240;28;20048;-48
2023/06/22 08:22:17;;;;;;;27.23;19.30;;;;;;;21.62;90.21;101573.75;5000571;28;20018;-48
2023/06/22 08:24:43;;;;;;;24.15;19.95;;;;;;;21.61;91.26;101574.75;4999907;28;20034;-48
2023/06/22 08:27:11;;;;;;;28.73;21.60;;;;;;;21.52;90.95;101565.00;4996620;28;20022;-48
2023/06/22 08:29:37;;;;;;;23.75;20.50;;;;;;;21.58;89.78;101578.66;5004060;28;20030;-48
2023/06/22 08:32:02;;;;;;;22.50;19.85;;;;;;;21.60;90.32;101573.09;4997070;28;20411;-48
2023/06/22 08:34:27;;;;;;;26.58;21.55;;;;;;;21.65;93.87;101573.41;4999149;28;20057;-49
2023/06/22 08:36:53;;;;;;;21.53;19.23;;;;;;;21.66;90.90;101569.66;4992250;28;20088;-48
2023/06/22 08:39:21;;;;;;;23.65;20.65;;;;;;;21.70;91.73;101580.97;4993971;28;20829;-48
2023/06/22 08:41:47;;;;;;;20.97;18.90;;;;;;;21.65;90.73;101570.72;4989482;28;20022;-48
2023/06/22 08:44:13;;;;;;;21.08;18.65;;;;;;;21.67;88.83;101574.06;4995940;28;20057;-48
2023/06/22 08:46:40;;;;;;;20.42;18.33;;;;;;;21.67;88.47;101571.38;4997300;28;20057;-48
2023/06/22 08:49:06;;;;;;;20.48;17.88;;;;;;;21.65;87.90;101568.00;4995700;28;20031;-48
2023/06/22 08:51:31;;;;;;;18.75;16.75;;;;;;;21.67;87.94;101571.38;4998342;28;20435;-48
2023/06/22 08:53:57;;;;;;;19.63;17.23;;;;;;;21.67;87.89;101565.13;4999121;28;20030;-48
2023/06/22 08:56:22;;;;;;;20.33;17.03;;;;;;;21.66;88.01;101563.44;4997390;28;20038;-49
2023/06/22 08:58:47;;;;;;;18.85;17.00;;;;;;;21.67;87.08;101562.44;4998020;28;20376;-52
2023/06/22 09:01:15;;;;;;;19.30;15.73;;;;;;;21.67;87.00;101557.03;4995140;28;20085;-48
2023/06/22 09:03:41;;;;;;;18.63;16.73;;;;;;;21.65;87.01;101551.78;4998478;28;20046;-49
2023/06/22 09:06:09;;;;;;;18.75;16.15;;;;;;;21.65;86.84;101542.81;5001043;28;20022;-50
2023/06/22 09:08:34;;;;;;;19.40;17.30;;;;;;;21.64;87.14;101544.69;5000027;28;20037;-47
2023/06/22 09:10:59;;;;;;;17.83;15.93;;;;;;;21.67;87.29;101543.50;4999279;28;20014;-47
2023/06/22 09:13:25;;;;;;;18.73;16.10;;;;;;;21.67;86.90;101546.22;5002064;28;20030;-47
2023/06/22 09:15:50;;;;;;;21.67;16.67;;;;;;;21.66;88.19;101547.22;4994977;28;20409;-49
2023/06/22 09:18:16;;;;;;;18.75;16.00;;;;;;;21.65;88.88;101546.38;4999126;28;20957;-48
2023/06/22 09:20:41;;;;;;;17.92;16.05;;;;;;;21.64;88.83;101547.38;5003458;28;20041;-47
2023/06/22 09:23:06;;;;;;;21.30;16.95;;;;;;;21.64;89.16;101539.28;4981760;28;20041;-48
2023/06/22 09:25:32;;;;;;;19.52;16.85;;;;;;;21.66;88.41;101536.41;5001250;28;20531;-48
2023/06/22 09:27:57;;;;;;;19.83;17.57;;;;;;;21.68;87.22;101540.59;4999138;28;20021;-49
2023/06/22 09:30:22;;;;;;;18.45;16.40;;;;;;;21.73;87.59;101540.94;4999081;28;20300;-47
2023/06/22 09:32:48;;;;;;;18.88;16.02;;;;;;;21.76;88.57;101542.44;5000926;28;20115;-47
2023/06/22 09:35:13;;;;;;;19.38;16.58;;;;;;;21.79;88.24;101545.63;4999634;28;20033;-47
2023/06/22 09:37:40;;;;;;;21.25;15.75;;;;;;;21.87;86.13;101549.34;4995748;28;20037;-48
2023/06/22 09:40:11;;;;;;;19.63;15.20;;;;;;;21.88;84.40;101548.31;4999866;28;20025;-48
2023/06/22 09:42:36;;;;;;;18.25;14.88;;;;;;;21.91;85.09;101546.09;5001581;28;20080;-48
2023/06/22 09:45:02;;;;;;;15.90;14.20;;;;;;;21.96;83.68;101545.56;5003575;28;20041;-48
2023/06/22 09:47:29;;;;;;;15.60;13.90;;;;;;;21.99;82.29;101543.34;4996396;28;20041;-48
2023/06/22 09:49:55;;;;;;;17.23;12.85;;;;;;;22.05;81.89;101535.56;5000934;28;20105;-48
2023/06/22 09:52:21;;;;;;;14.00;12.10;;;;;;;22.09;81.63;101540.44;5001229;28;20106;-48
2023/06/22 09:54:46;;;;;;;16.23;13.15;;;;;;;22.09;80.46;101537.72;4994726;28;20166;-48
2023/06/22 09:57:12;;;;;;;13.95;12.55;;;;;;;22.13;81.67;101532.81;4999715;28;20072;-48
2023/06/22 09:59:38;;;;;;;17.65;12.05;;;;;;;22.18;78.57;101531.28;5002882;28;20030;-47
2023/06/22 10:02:03;;;;;;;14.45;11.30;;;;;;;22.21;77.61;101538.19;4993575;28;20101;-47
2023/06/22 10:04:29;;;;;;;14.02;10.95;;;;;;;22.19;77.74;101534.81;4997454;28;20022;-47
2023/06/22 10:06:54;;;;;;;12.55;11.18;;;;;;;22.26;76.10;101541.19;4997053;28;20054;-49
2023/06/22 10:09:21;;;;;;;13.73;11.63;;;;;;;22.30;76.15;101537.16;5002810;28;20025;-49
2023/06/22 10:11:46;;;;;;;12.55;11.18;;;;;;;22.28;75.89;101533.78;5002915;28;20021;-48
2023/06/22 10:14:11;;;;;;;12.50;11.10;;;;;;;22.31;76.58;101536.13;4996084;28;20026;-48
2023/06/22 10:16:36;;;;;;;12.45;11.25;;;;;;;22.32;75.62;101527.00;4998433;28;20296;-48
2023/06/22 10:19:02;;;;;;;13.05;10.52;;;;;;;22.37;78.68;101539.16;4998914;28;20613;-46
2023/06/22 10:21:28;;;;;;;13.30;11.23;;;;;;;22.34;78.93;101537.63;4999274;28;20046;-46
2023/06/22 10:23:54;;;;;;;11.90;10.63;;;;;;;22.28;78.70;101533.78;4987633;28;20038;-48
2023/06/22 10:26:20;;;;;;;14.25;11.15;;;;;;;22.28;79.06;101538.31;4994434;28;20112;-47
2023/06/22 10:28:45;;;;;;;16.48;12.23;;;;;;;22.24;81.28;101545.13;4999840;28;20184;-47
2023/06/22 10:31:10;;;;;;;17.08;13.05;;;;;;;22.22;82.62;101542.59;4999780;28;20030;-47
2023/06/22 10:33:35;;;;;;;19.60;13.75;;;;;;;22.15;81.40;101545.16;4998878;28;20042;-48
2023/06/22 10:36:01;;;;;;;14.93;12.63;;;;;;;22.18;81.43;101552.06;4996300;28;20018;-47
2023/06/22 10:38:26;;;;;;;15.98;12.93;;;;;;;22.13;83.74;101554.44;5000421;28;20080;-48
2023/06/22 10:40:51;;;;;;;14.32;12.82;;;;;;;22.11;84.18;101545.69;4998961;28;20061;-48
2023/06/22 10:43:17;;;;;;;14.05;12.30;;;;;;;22.16;82.80;101556.81;4997076;28;20105;-48
2023/06/22 10:45:42;;;;;;;15.30;12.77;;;;;;;22.13;83.80;101566.13;4996709;28;20042;-48
2023/06/22 10:48:07;;;;;;;15.07;13.35;;;;;;;22.10;85.22;101571.03;4998517;28;20018;-47
2023/06/22 10:50:33;;;;;;;14.93;13.43;;;;;;;22.12;86.20;101580.66;4991448;28;20026;-48
2023/06/22 10:52:58;;;;;;;15.48;13.88;;;;;;;22.09;84.42;101582.91;4993376;28;20030;-48
2023/06/22 10:55:23;;;;;;;15.63;13.80;;;;;;;22.04;85.80;101583.41;4999639;28;20034;-48
2023/06/22 10:57:49;;;;;;;16.97;14.13;;;;;;;22.02;86.88;101582.75;4999769;28;20026;-48
2023/06/22 11:00:15;;;;;;;16.23;14.43;;;;;;;21.99;87.47;101572.28;5000214;28;20721;-48
2023/06/22 11:02:41;;;;;;;16.80;14.98;;;;;;;21.94;88.52;101566.56;4993293;28;20025;-48
2023/06/22 11:05:06;;;;;;;17.70;15.60;;;;;;;21.89;88.95;101568.94;4989940;28;20117;-48
2023/06/22 11:07:32;;;;;;;18.25;15.88;;;;;;;21.83;88.94;101573.16;4999872;28;20061;-48
2023/06/22 11:09:58;;;;;;;19.30;16.27;;;;;;;21.77;92.62;101571.19;5000393;28;20125;-48